Time;durP1;ratioP1;P1;durP2;ratioP2;P2;SDS_P1;SDS_P2;PMS_P1;PMS_P2;Temp;Humidity;BMP_temperature;BMP_pressure;BME280_temperature;BME280_humidity;BME280_pressure;Samples;Min_cycle;Max_cycle;Signal;HPM_P1;HPM_P2
2021/12/02 00:01:23;;;;;;;5.90;0.97;;;5.30;99.90;;;;;;5052404;28;20222;-74
2021/12/02 00:03:50;;;;;;;3.03;1.00;;;5.30;99.90;;;;;;5053488;28;20554;-74
2021/12/02 00:06:19;;;;;;;2.80;0.90;;;5.30;99.90;;;;;;5054818;28;20207;-74
2021/12/02 00:08:48;;;;;;;3.87;1.00;;;5.40;99.90;;;;;;5053850;28;20594;-74
2021/12/02 00:11:18;;;;;;;8.07;1.27;;;5.40;99.90;;;;;;5053716;28;20793;-74
2021/12/02 00:13:53;;;;;;;6.20;1.27;;;5.40;99.90;;;;;;5053080;28;20203;-74
2021/12/02 00:16:26;;;;;;;4.90;1.27;;;5.40;99.90;;;;;;5054149;28;20206;-74
2021/12/02 00:21:42;;;;;;;6.87;2.00;;;5.40;99.90;;;;;;5054507;28;20563;-74
2021/12/02 00:24:11;;;;;;;6.53;1.00;;;5.30;99.90;;;;;;5053758;28;20206;-74
2021/12/02 00:26:40;;;;;;;2.40;0.63;;;5.30;99.90;;;;;;5052360;28;20199;-74
2021/12/02 00:29:09;;;;;;;4.00;0.73;;;5.20;99.90;;;;;;5053527;28;20561;-74
2021/12/02 00:31:38;;;;;;;4.17;1.23;;;5.30;99.90;;;;;;5053973;28;20210;-74
2021/12/02 00:34:07;;;;;;;4.10;1.27;;;5.30;99.90;;;;;;5053323;28;20219;-74
2021/12/02 00:36:36;;;;;;;1.37;0.67;;;5.30;99.90;;;;;;5053881;28;20225;-74
2021/12/02 00:39:08;;;;;;;5.20;1.00;;;5.20;99.90;;;;;;5052851;28;20202;-74
2021/12/02 00:41:35;;;;;;;9.50;1.30;;;5.20;99.90;;;;;;5051413;28;20223;-74
2021/12/02 00:44:03;;;;;;;6.60;1.20;;;5.20;99.90;;;;;;5067787;28;20206;-74
2021/12/02 00:46:33;;;;;;;6.33;1.20;;;5.20;99.90;;;;;;5072463;28;20381;-74
2021/12/02 00:49:02;;;;;;;4.97;1.20;;;5.10;99.90;;;;;;5072832;28;20206;-74
2021/12/02 00:51:31;;;;;;;2.23;0.73;;;5.20;99.90;;;;;;5073316;28;20199;-74
2021/12/02 00:54:03;;;;;;;3.50;1.03;;;5.20;99.90;;;;;;5072187;28;20206;-74
2021/12/02 00:56:31;;;;;;;7.53;1.23;;;5.30;99.90;;;;;;5073611;28;20202;-78
2021/12/02 00:58:59;;;;;;;4.17;1.20;;;5.30;99.90;;;;;;5073438;28;20220;-74
2021/12/02 01:01:33;;;;;;;4.83;1.40;;;5.30;99.90;;;;;;5073981;28;20249;-74
2021/12/02 01:04:01;;;;;;;8.47;1.50;;;5.40;99.90;;;;;;5055754;28;20563;-74
2021/12/02 01:06:28;;;;;;;5.63;0.97;;;5.40;99.90;;;;;;5074024;28;20207;-74
2021/12/02 01:08:55;;;;;;;5.90;1.40;;;5.30;99.90;;;;;;5073591;28;20206;-74
2021/12/02 01:11:23;;;;;;;7.43;1.30;;;5.30;99.90;;;;;;5072809;28;20202;-74
2021/12/02 01:13:50;;;;;;;5.47;1.40;;;5.30;99.90;;;;;;5072888;28;20233;-74
2021/12/02 01:16:18;;;;;;;2.77;1.10;;;5.20;99.90;;;;;;5073984;28;20248;-74
2021/12/02 01:18:46;;;;;;;7.17;1.23;;;5.20;99.90;;;;;;5073045;28;20203;-74
2021/12/02 01:21:16;;;;;;;5.53;0.93;;;5.20;99.90;;;;;;5073621;28;20222;-74
2021/12/02 01:23:43;;;;;;;9.30;1.17;;;5.30;99.90;;;;;;5073610;28;20210;-74
2021/12/02 01:26:16;;;;;;;8.20;1.40;;;5.20;99.90;;;;;;5072745;28;20240;-74
2021/12/02 01:28:44;;;;;;;7.07;1.30;;;5.20;99.90;;;;;;5072410;28;20729;-74
2021/12/02 01:31:12;;;;;;;8.03;1.53;;;5.20;99.90;;;;;;5073413;28;20206;-74
2021/12/02 01:33:39;;;;;;;4.90;0.90;;;5.20;99.90;;;;;;5125477;22;20706;-75
2021/12/02 01:36:08;;;;;;;5.13;1.07;;;5.10;99.90;;;;;;5073323;28;20195;-75
2021/12/02 01:38:35;;;;;;;10.63;1.53;;;4.90;99.90;;;;;;5072686;28;20216;-75
2021/12/02 01:41:04;;;;;;;5.57;1.17;;;4.70;99.90;;;;;;5073413;28;20534;-75
2021/12/02 01:43:45;;;;;;;4.97;1.20;;;4.70;99.90;;;;;;5073417;28;20701;-75
2021/12/02 01:46:12;;;;;;;5.23;1.37;;;4.70;99.90;;;;;;5072653;28;20202;-75
2021/12/02 01:48:41;;;;;;;9.13;1.20;;;4.80;99.90;;;;;;5073601;28;20206;-75
2021/12/02 01:51:11;;;;;;;8.47;1.37;;;4.80;99.90;;;;;;5071577;28;20210;-75
2021/12/02 01:53:40;;;;;;;11.03;2.07;;;4.80;99.90;;;;;;5073149;28;20566;-75
2021/12/02 01:56:10;;;;;;;6.97;1.30;;;4.80;99.90;;;;;;5071947;28;20209;-75
2021/12/02 01:58:43;;;;;;;5.80;1.50;;;4.80;99.90;;;;;;5072780;28;20198;-75
2021/12/02 02:01:16;;;;;;;3.93;1.23;;;4.80;99.90;;;;;;5073046;28;20458;-75
2021/12/02 02:03:44;;;;;;;7.50;1.60;;;4.90;99.90;;;;;;5072611;28;20213;-75
2021/12/02 02:06:15;;;;;;;6.37;1.30;;;4.90;99.90;;;;;;5073021;28;20210;-75
2021/12/02 02:08:46;;;;;;;7.30;1.50;;;5.00;99.90;;;;;;5072619;28;20206;-75
2021/12/02 02:11:13;;;;;;;4.97;1.20;;;5.00;99.90;;;;;;5071934;28;20566;-75
2021/12/02 02:13:42;;;;;;;4.40;1.50;;;5.00;99.90;;;;;;5072133;28;20210;-75
2021/12/02 02:16:09;;;;;;;9.57;1.97;;;4.90;99.90;;;;;;5072530;28;20659;-75
2021/12/02 02:18:36;;;;;;;7.27;1.90;;;4.80;99.90;;;;;;5071772;28;20198;-76
2021/12/02 02:21:08;;;;;;;9.43;1.43;;;4.80;99.90;;;;;;5072806;28;20599;-76
2021/12/02 02:23:38;;;;;;;12.37;1.37;;;4.70;99.90;;;;;;5071825;28;20202;-75
2021/12/02 02:26:06;;;;;;;5.40;1.23;;;4.80;99.90;;;;;;5072696;28;20202;-74
2021/12/02 02:28:33;;;;;;;3.47;1.37;;;4.70;99.90;;;;;;5071857;28;20201;-75
2021/12/02 02:31:00;;;;;;;8.57;1.30;;;4.80;99.90;;;;;;5071668;28;20277;-75
2021/12/02 02:33:34;;;;;;;4.23;1.90;;;4.60;99.90;;;;;;5072567;28;20221;-75
2021/12/02 02:36:01;;;;;;;3.20;0.97;;;4.70;99.90;;;;;;5071233;28;20206;-75
2021/12/02 02:38:29;;;;;;;6.53;1.57;;;4.60;99.90;;;;;;5072416;28;20199;-75
2021/12/02 02:40:58;;;;;;;5.03;0.97;;;4.60;99.90;;;;;;5071468;28;20233;-75
2021/12/02 02:43:26;;;;;;;6.07;1.60;;;4.60;99.90;;;;;;5072205;28;20218;-75
2021/12/02 02:45:54;;;;;;;5.87;1.10;;;4.60;99.90;;;;;;5072734;28;20203;-75
2021/12/02 02:48:20;;;;;;;2.97;0.90;;;4.50;99.90;;;;;;5071867;28;20212;-75
2021/12/02 02:50:48;;;;;;;5.80;1.00;;;4.50;99.90;;;;;;5072158;28;20245;-75
2021/12/02 02:53:18;;;;;;;6.33;1.27;;;4.40;99.90;;;;;;5071444;28;20560;-75
2021/12/02 02:55:53;;;;;;;7.00;1.20;;;4.40;99.90;;;;;;5072050;28;20240;-75
2021/12/02 02:58:27;;;;;;;8.17;1.20;;;4.40;99.90;;;;;;5070634;28;20222;-75
2021/12/02 03:01:02;;;;;;;6.80;1.40;;;4.40;99.90;;;;;;5072189;28;20206;-75
2021/12/02 03:03:36;;;;;;;3.13;1.10;;;4.50;99.90;;;;;;5071332;28;20279;-75
2021/12/02 03:06:19;;;;;;;6.37;1.37;;;4.40;99.90;;;;;;5071896;28;20214;-75
2021/12/02 03:08:51;;;;;;;5.03;1.03;;;4.50;99.90;;;;;;5071000;28;20206;-75
2021/12/02 03:11:22;;;;;;;4.43;1.07;;;4.40;99.90;;;;;;5070750;28;20202;-76
2021/12/02 03:13:51;;;;;;;4.93;1.80;;;4.50;99.90;;;;;;5072058;28;20202;-75
2021/12/02 03:19:03;;;;;;;11.33;1.50;;;4.50;99.90;;;;;;5071575;28;20267;-75
2021/12/02 03:21:30;;;;;;;7.03;1.10;;;4.40;99.90;;;;;;5071483;28;20212;-75
2021/12/02 03:24:00;;;;;;;5.97;1.37;;;4.40;99.90;;;;;;5059243;28;20252;-75
2021/12/02 03:26:30;;;;;;;6.37;0.93;;;4.40;99.90;;;;;;5068851;28;20215;-75
2021/12/02 03:28:57;;;;;;;6.53;1.23;;;4.40;99.90;;;;;;5071644;28;20236;-75
2021/12/02 03:31:24;;;;;;;7.20;1.20;;;4.50;99.90;;;;;;5071934;28;20293;-75
2021/12/02 03:33:51;;;;;;;6.40;1.30;;;4.40;99.90;;;;;;5067195;28;20221;-75
2021/12/02 03:36:19;;;;;;;6.23;1.03;;;4.50;99.90;;;;;;5071334;28;20304;-75
2021/12/02 03:38:47;;;;;;;4.03;1.30;;;4.50;99.90;;;;;;5073371;28;20209;-75
2021/12/02 03:41:16;;;;;;;6.07;1.03;;;4.40;99.90;;;;;;5073578;28;20213;-75
2021/12/02 03:43:45;;;;;;;2.83;1.20;;;4.40;99.90;;;;;;5086809;28;20218;-75
2021/12/02 03:46:14;;;;;;;7.83;1.20;;;4.30;99.90;;;;;;5094556;28;20559;-75
2021/12/02 03:48:42;;;;;;;8.17;1.43;;;4.30;99.90;;;;;;5093841;28;20645;-75
2021/12/02 03:51:11;;;;;;;6.80;1.27;;;4.30;99.90;;;;;;5094207;28;20212;-75
2021/12/02 03:53:38;;;;;;;8.97;1.50;;;4.20;99.90;;;;;;5081535;28;20233;-75
2021/12/02 03:56:07;;;;;;;8.43;1.33;;;4.10;99.90;;;;;;5073455;28;20202;-76
2021/12/02 03:58:35;;;;;;;5.97;1.60;;;4.10;99.90;;;;;;5073201;28;20656;-76
2021/12/02 04:01:05;;;;;;;4.77;0.93;;;4.10;99.90;;;;;;5074106;28;20202;-76
2021/12/02 04:03:32;;;;;;;6.70;1.23;;;4.00;99.90;;;;;;5072887;28;20218;-76
2021/12/02 04:05:59;;;;;;;6.07;1.20;;;4.00;99.90;;;;;;5074085;28;20199;-76
2021/12/02 04:08:30;;;;;;;7.43;1.57;;;3.90;99.90;;;;;;5073543;28;20202;-76
2021/12/02 04:11:11;;;;;;;9.07;1.30;;;3.80;99.90;;;;;;5072750;28;20297;-76
2021/12/02 04:13:43;;;;;;;8.20;3.50;;;3.80;99.90;;;;;;5073356;28;20194;-76
2021/12/02 04:16:16;;;;;;;1.33;0.80;;;3.80;99.90;;;;;;5073734;28;20244;-76
2021/12/02 04:18:42;;;;;;;7.10;1.13;;;3.80;99.90;;;;;;5081032;28;20226;-76
2021/12/02 04:21:09;;;;;;;1.60;0.50;;;3.80;99.90;;;;;;5071721;28;20201;-76
2021/12/02 04:23:36;;;;;;;8.70;1.00;;;3.90;99.90;;;;;;5072825;28;20226;-76
2021/12/02 04:26:03;;;;;;;7.13;1.03;;;3.90;99.90;;;;;;5073636;28;20212;-76
2021/12/02 04:28:30;;;;;;;9.13;2.27;;;3.90;99.90;;;;;;5073038;28;20214;-76
2021/12/02 04:30:57;;;;;;;4.23;0.90;;;3.90;99.90;;;;;;5073537;28;20567;-76
2021/12/02 04:33:26;;;;;;;2.83;0.90;;;3.90;99.90;;;;;;5030405;28;1228730;-75
2021/12/02 04:35:53;;;;;;;7.53;1.30;;;3.80;99.90;;;;;;5074320;28;20210;-76
2021/12/02 04:38:20;;;;;;;7.77;1.33;;;3.70;99.90;;;;;;5074695;28;20660;-76
2021/12/02 04:40:47;;;;;;;3.77;1.17;;;3.70;99.90;;;;;;5072914;28;20202;-76
2021/12/02 04:43:14;;;;;;;8.07;1.10;;;3.70;99.90;;;;;;5073526;28;20222;-76
2021/12/02 04:45:41;;;;;;;4.30;1.20;;;3.60;99.90;;;;;;5074490;28;20210;-75
2021/12/02 04:48:08;;;;;;;5.77;1.13;;;3.60;99.90;;;;;;5073556;28;20202;-76
2021/12/02 04:50:36;;;;;;;3.50;1.10;;;3.60;99.90;;;;;;5074135;28;20192;-76
2021/12/02 04:53:03;;;;;;;8.73;1.97;;;3.50;99.90;;;;;;5073614;28;20238;-76
2021/12/02 04:55:31;;;;;;;6.40;1.23;;;3.50;99.90;;;;;;5074357;28;20667;-76
2021/12/02 04:57:57;;;;;;;3.70;1.37;;;3.50;99.90;;;;;;5073382;28;20211;-76
2021/12/02 05:00:24;;;;;;;5.33;1.00;;;3.40;99.90;;;;;;5073893;28;20202;-76
2021/12/02 05:02:51;;;;;;;10.13;1.50;;;3.40;99.90;;;;;;5073125;28;20219;-75
2021/12/02 05:05:18;;;;;;;5.77;1.03;;;3.40;99.90;;;;;;5073807;28;20202;-76
2021/12/02 05:07:48;;;;;;;9.10;1.37;;;3.40;99.90;;;;;;5074108;28;20210;-76
2021/12/02 05:10:15;;;;;;;8.60;1.50;;;3.40;99.90;;;;;;5073037;28;20210;-76
2021/12/02 05:12:42;;;;;;;6.27;1.20;;;3.30;99.90;;;;;;5073041;28;20778;-76
2021/12/02 05:15:10;;;;;;;3.50;1.17;;;3.20;99.90;;;;;;5073494;28;20213;-76
2021/12/02 05:17:37;;;;;;;8.47;1.10;;;3.20;99.90;;;;;;5072894;28;20305;-76
2021/12/02 05:20:04;;;;;;;5.07;1.20;;;3.20;99.90;;;;;;5073570;28;20202;-76
2021/12/02 05:22:31;;;;;;;5.03;1.37;;;3.10;99.90;;;;;;5072832;28;20222;-76
2021/12/02 05:24:59;;;;;;;6.43;1.33;;;3.10;99.90;;;;;;5073727;28;20723;-76
2021/12/02 05:27:27;;;;;;;8.50;1.83;;;3.10;99.90;;;;;;5072283;28;20198;-76
2021/12/02 05:29:53;;;;;;;3.87;0.80;;;3.10;99.90;;;;;;5073250;28;20580;-76
2021/12/02 05:32:20;;;;;;;3.80;1.10;;;3.10;99.90;;;;;;5073288;28;20210;-76
2021/12/02 05:34:49;;;;;;;6.43;1.50;;;3.10;99.90;;;;;;5092197;28;20212;-76
2021/12/02 05:37:16;;;;;;;2.60;1.10;;;3.20;99.90;;;;;;5093088;28;20206;-76
2021/12/02 05:39:43;;;;;;;8.70;1.20;;;3.10;99.90;;;;;;5093310;28;20205;-76
2021/12/02 05:42:11;;;;;;;5.17;1.27;;;3.10;99.90;;;;;;5092532;28;20198;-76
2021/12/02 05:44:40;;;;;;;4.53;1.57;;;3.10;99.90;;;;;;5093257;28;20209;-76
2021/12/02 05:47:07;;;;;;;4.83;1.47;;;3.10;99.90;;;;;;5093142;28;20204;-76
2021/12/02 05:49:35;;;;;;;2.97;1.17;;;3.10;99.90;;;;;;5093109;28;20215;-76
2021/12/02 05:52:02;;;;;;;8.03;1.50;;;3.10;99.90;;;;;;5092622;28;20411;-76
2021/12/02 05:54:29;;;;;;;4.27;1.43;;;3.10;99.90;;;;;;5092905;28;20223;-76
2021/12/02 05:56:56;;;;;;;5.83;1.43;;;3.10;99.90;;;;;;5092643;28;20206;-76
2021/12/02 05:59:25;;;;;;;7.67;1.37;;;3.10;99.90;;;;;;5092578;28;20201;-76
2021/12/02 06:01:52;;;;;;;8.33;1.50;;;3.10;99.90;;;;;;5093207;28;20282;-76
2021/12/02 06:04:18;;;;;;;10.77;1.73;;;3.20;99.90;;;;;;5092814;28;20229;-76
2021/12/02 06:06:45;;;;;;;7.40;1.73;;;3.10;99.90;;;;;;5092865;28;20206;-76
2021/12/02 06:09:12;;;;;;;8.57;1.80;;;3.20;99.90;;;;;;5091905;28;20259;-76
2021/12/02 06:11:39;;;;;;;8.27;1.77;;;3.10;99.90;;;;;;5092546;28;20201;-76
2021/12/02 06:14:06;;;;;;;5.57;2.20;;;3.20;99.90;;;;;;5092051;28;20209;-76
2021/12/02 06:16:34;;;;;;;12.17;2.17;;;3.20;99.90;;;;;;5092550;28;20208;-76
2021/12/02 06:19:01;;;;;;;8.53;2.23;;;3.20;99.90;;;;;;5076645;28;20578;-76
2021/12/02 06:21:28;;;;;;;5.40;1.80;;;3.20;99.90;;;;;;5072402;28;20212;-76
2021/12/02 06:23:56;;;;;;;5.87;1.73;;;3.20;99.90;;;;;;5071297;28;20268;-76
2021/12/02 06:26:23;;;;;;;7.40;1.90;;;3.20;99.90;;;;;;5071857;28;20210;-76
2021/12/02 06:28:49;;;;;;;6.00;1.80;;;3.20;99.90;;;;;;5072033;28;20232;-76
2021/12/02 06:31:16;;;;;;;8.87;2.17;;;3.30;99.90;;;;;;5072384;28;20206;-69
2021/12/02 06:33:45;;;;;;;8.23;2.70;;;3.30;99.90;;;;;;5071007;28;20218;-76
2021/12/02 06:36:12;;;;;;;8.77;3.17;;;3.30;99.90;;;;;;5071932;28;20198;-76
2021/12/02 06:38:40;;;;;;;6.87;1.73;;;3.30;99.90;;;;;;5071220;28;20198;-76
2021/12/02 06:41:07;;;;;;;6.70;2.20;;;3.30;99.90;;;;;;5068724;28;20199;-76
2021/12/02 06:43:34;;;;;;;7.30;3.40;;;3.30;99.90;;;;;;5071606;28;20757;-76
2021/12/02 06:46:01;;;;;;;9.80;2.63;;;3.30;99.90;;;;;;5071587;28;20641;-76
2021/12/02 06:48:28;;;;;;;8.23;2.13;;;3.30;99.90;;;;;;5070186;28;20561;-76
2021/12/02 06:50:56;;;;;;;6.53;2.83;;;3.30;99.90;;;;;;5070914;28;20255;-76
2021/12/02 06:53:24;;;;;;;5.87;2.20;;;3.30;99.90;;;;;;5070334;28;20210;-76
2021/12/02 06:55:51;;;;;;;4.93;2.27;;;3.30;99.90;;;;;;5071322;28;20221;-76
2021/12/02 06:58:18;;;;;;;8.70;3.10;;;3.40;99.90;;;;;;5070199;28;20323;-76
2021/12/02 07:00:44;;;;;;;7.23;3.50;;;3.40;99.90;;;;;;5070894;28;20206;-76
2021/12/02 07:03:11;;;;;;;7.00;2.80;;;3.40;99.90;;;;;;5070056;28;20684;-76
2021/12/02 07:05:38;;;;;;;7.17;2.80;;;3.40;99.90;;;;;;5071137;28;20198;-76
2021/12/02 07:08:07;;;;;;;11.33;3.43;;;3.40;99.90;;;;;;5071116;28;20260;-77
2021/12/02 07:10:35;;;;;;;8.90;2.60;;;3.40;99.90;;;;;;5070561;28;20600;-76
2021/12/02 07:13:02;;;;;;;9.33;3.20;;;3.40;99.90;;;;;;5074713;28;20202;-77
2021/12/02 07:15:31;;;;;;;5.40;2.50;;;3.30;99.90;;;;;;5075036;28;20206;-76
2021/12/02 07:18:00;;;;;;;9.00;3.20;;;3.30;99.90;;;;;;5074352;28;20209;-76
2021/12/02 07:20:29;;;;;;;10.70;3.70;;;3.30;99.90;;;;;;5074859;28;20649;-76
2021/12/02 07:22:57;;;;;;;6.20;3.10;;;3.20;99.90;;;;;;5062618;28;20211;-76
2021/12/02 07:25:25;;;;;;;12.00;3.57;;;3.20;99.90;;;;;;5070324;28;20244;-76
2021/12/02 07:27:52;;;;;;;6.70;3.00;;;3.30;99.90;;;;;;5074913;28;20208;-77
2021/12/02 07:30:19;;;;;;;7.07;2.73;;;3.30;99.90;;;;;;5074642;28;20622;-76
2021/12/02 07:32:52;;;;;;;6.97;3.37;;;3.40;99.90;;;;;;5076505;28;20206;-76
2021/12/02 07:35:19;;;;;;;9.60;2.90;;;3.40;99.90;;;;;;5094786;28;20212;-76
2021/12/02 07:37:48;;;;;;;7.77;2.90;;;3.40;99.90;;;;;;5084707;28;20614;-76
2021/12/02 07:40:17;;;;;;;8.20;2.83;;;3.40;99.90;;;;;;5072308;28;20241;-76
2021/12/02 07:42:47;;;;;;;7.93;2.97;;;3.40;99.90;;;;;;5073863;28;20256;-76
2021/12/02 07:45:15;;;;;;;6.00;2.30;;;3.40;99.90;;;;;;5074761;28;20217;-76
2021/12/02 07:47:43;;;;;;;6.90;2.20;;;3.50;99.90;;;;;;5083742;28;20568;-77
2021/12/02 07:50:15;;;;;;;9.37;2.33;;;3.50;99.90;;;;;;5093537;28;20205;-76
2021/12/02 07:52:45;;;;;;;4.50;1.93;;;3.50;99.90;;;;;;5093327;28;20254;-76
2021/12/02 07:55:14;;;;;;;5.40;1.90;;;3.50;99.90;;;;;;5093599;28;20216;-75
2021/12/02 07:57:43;;;;;;;9.10;1.90;;;3.60;99.90;;;;;;5092664;28;20194;-75
2021/12/02 08:00:14;;;;;;;4.13;1.50;;;3.60;99.90;;;;;;5092822;28;20209;-75
2021/12/02 08:02:43;;;;;;;8.33;1.87;;;3.70;99.90;;;;;;5092951;28;20258;-75
2021/12/02 08:05:11;;;;;;;4.33;1.90;;;3.60;99.90;;;;;;5094374;28;20226;-75
2021/12/02 08:07:39;;;;;;;5.63;1.43;;;3.60;99.90;;;;;;5089803;28;20283;-75
2021/12/02 08:10:08;;;;;;;3.97;1.37;;;3.60;99.90;;;;;;5073605;28;20202;-75
2021/12/02 08:12:35;;;;;;;5.53;2.30;;;3.50;99.90;;;;;;5071714;28;20209;-75
2021/12/02 08:15:03;;;;;;;10.03;2.10;;;3.30;99.90;;;;;;5074208;28;20198;-75
2021/12/02 08:17:32;;;;;;;6.37;2.13;;;3.10;99.90;;;;;;5075494;28;20201;-75
2021/12/02 08:19:59;;;;;;;6.50;3.00;;;2.90;99.90;;;;;;5093695;28;20194;-75
2021/12/02 08:22:26;;;;;;;5.83;2.13;;;2.90;99.90;;;;;;5093283;28;20599;-75
2021/12/02 08:24:53;;;;;;;5.83;2.03;;;3.00;99.90;;;;;;5091783;28;20217;-75
2021/12/02 08:27:22;;;;;;;5.20;1.90;;;2.70;99.90;;;;;;5092696;28;20205;-75
2021/12/02 08:29:49;;;;;;;4.67;2.60;;;2.70;99.90;;;;;;5093366;28;20201;-75
2021/12/02 08:32:16;;;;;;;9.67;3.00;;;2.60;99.90;;;;;;5092826;28;20198;-75
2021/12/02 08:34:45;;;;;;;5.60;2.80;;;2.40;99.90;;;;;;5093703;28;20205;-75
2021/12/02 08:37:12;;;;;;;5.43;2.50;;;2.40;99.90;;;;;;5093365;28;20607;-75
2021/12/02 08:39:41;;;;;;;9.00;3.20;;;2.40;99.90;;;;;;5093778;28;20300;-75
2021/12/02 08:42:10;;;;;;;6.23;2.83;;;2.50;99.90;;;;;;5093658;28;20293;-75
2021/12/02 08:44:40;;;;;;;7.60;3.80;;;2.50;99.90;;;;;;5093574;28;20224;-75
2021/12/02 08:47:09;;;;;;;12.37;7.10;;;2.60;99.90;;;;;;5092780;28;20244;-75
2021/12/02 08:49:37;;;;;;;11.20;4.80;;;2.70;99.90;;;;;;5052954;28;20199;-75
2021/12/02 08:52:06;;;;;;;7.87;3.20;;;2.70;99.90;;;;;;5052354;28;20674;-75
2021/12/02 08:54:33;;;;;;;6.07;2.63;;;2.70;99.90;;;;;;5066017;28;20203;-75
2021/12/02 08:57:00;;;;;;;5.47;2.73;;;2.80;99.90;;;;;;5072262;28;20194;-75
2021/12/02 08:59:27;;;;;;;7.67;2.80;;;2.90;99.90;;;;;;5071722;28;20202;-76
2021/12/02 09:01:54;;;;;;;8.87;3.23;;;2.90;99.90;;;;;;5073389;28;20206;-75
2021/12/02 09:04:21;;;;;;;7.43;3.00;;;2.90;99.90;;;;;;5071810;28;20218;-75
2021/12/02 09:06:49;;;;;;;5.90;3.10;;;3.00;99.90;;;;;;5075213;28;20263;-75
2021/12/02 09:09:17;;;;;;;5.17;2.53;;;3.10;99.90;;;;;;5092747;28;20201;-75
2021/12/02 09:11:44;;;;;;;7.47;2.93;;;3.10;99.90;;;;;;5090915;28;20197;-75
2021/12/02 09:14:11;;;;;;;6.13;2.60;;;3.20;99.90;;;;;;5087423;28;20293;-75
2021/12/02 09:16:38;;;;;;;5.80;2.50;;;3.20;99.90;;;;;;5072821;28;20206;-75
2021/12/02 09:19:06;;;;;;;3.60;2.43;;;3.40;99.90;;;;;;5070724;28;20206;-75
2021/12/02 09:21:33;;;;;;;8.33;2.40;;;3.50;99.90;;;;;;5070918;28;20221;-75
2021/12/02 09:24:00;;;;;;;8.93;2.50;;;3.40;99.90;;;;;;5080766;28;20263;-75
2021/12/02 09:26:28;;;;;;;6.63;2.70;;;3.70;99.90;;;;;;5091852;28;20697;-75
2021/12/02 09:28:57;;;;;;;5.63;1.93;;;3.80;99.90;;;;;;5092764;28;20620;-75
2021/12/02 09:31:25;;;;;;;9.13;2.47;;;3.90;99.90;;;;;;5092332;28;20250;-75
2021/12/02 09:33:52;;;;;;;6.87;2.60;;;4.30;99.90;;;;;;5091925;28;20217;-76
2021/12/02 09:36:20;;;;;;;5.60;2.70;;;4.50;99.90;;;;;;5090497;28;20201;-75
2021/12/02 09:38:47;;;;;;;6.23;2.00;;;4.50;99.90;;;;;;5092675;28;20193;-75
2021/12/02 09:41:15;;;;;;;6.10;2.10;;;4.60;99.90;;;;;;5090774;28;20202;-75
2021/12/02 09:43:43;;;;;;;6.00;2.37;;;4.70;99.90;;;;;;5092393;28;20198;-75
2021/12/02 09:46:11;;;;;;;7.97;1.83;;;4.60;99.90;;;;;;5091151;28;20251;-75
2021/12/02 09:48:39;;;;;;;6.73;1.93;;;4.50;99.90;;;;;;5092433;28;20197;-75
2021/12/02 09:51:09;;;;;;;5.50;1.80;;;4.70;99.90;;;;;;5091317;28;20205;-75
2021/12/02 09:53:48;;;;;;;8.03;1.93;;;4.90;99.90;;;;;;5092173;28;20298;-75
2021/12/02 09:56:19;;;;;;;3.17;1.33;;;5.10;99.90;;;;;;5091258;28;20704;-75
2021/12/02 09:58:50;;;;;;;5.30;1.37;;;5.10;99.90;;;;;;5092028;28;20237;-75
2021/12/02 10:01:19;;;;;;;3.97;1.20;;;4.80;99.90;;;;;;5092131;28;20217;-69
2021/12/02 10:03:48;;;;;;;4.83;1.50;;;4.70;99.90;;;;;;5092253;28;20575;-70
2021/12/02 10:06:22;;;;;;;2.27;1.33;;;4.50;99.90;;;;;;5088283;28;20218;-69
2021/12/02 10:08:55;;;;;;;4.67;1.60;;;4.50;99.90;;;;;;5070513;28;20221;-70
2021/12/02 10:11:30;;;;;;;5.23;1.63;;;4.60;99.90;;;;;;5070201;28;20203;-70
2021/12/02 10:14:17;;;;;;;4.10;1.70;;;4.70;99.90;;;;;;5071308;28;20206;-70
2021/12/02 10:16:45;;;;;;;4.07;1.33;;;4.80;99.90;;;;;;5070554;28;20206;-70
2021/12/02 10:19:15;;;;;;;3.77;1.33;;;4.80;99.90;;;;;;5071580;28;20210;-70
2021/12/02 10:21:45;;;;;;;3.33;1.33;;;4.70;99.90;;;;;;5074074;28;20561;-70
2021/12/02 10:24:14;;;;;;;3.53;1.10;;;4.40;99.90;;;;;;5090910;28;20335;-70
2021/12/02 10:26:44;;;;;;;3.93;1.07;;;4.40;99.90;;;;;;5089692;28;20198;-70
2021/12/02 10:29:16;;;;;;;3.17;1.13;;;4.20;99.90;;;;;;5090906;28;20432;-70
2021/12/02 10:31:47;;;;;;;2.93;1.00;;;4.20;99.90;;;;;;5086764;28;20214;-70
2021/12/02 10:34:15;;;;;;;4.17;1.23;;;4.30;99.90;;;;;;5070751;28;20623;-69
2021/12/02 10:36:44;;;;;;;3.53;1.30;;;4.40;99.90;;;;;;5072132;28;20206;-70
2021/12/02 10:39:14;;;;;;;4.53;2.00;;;4.30;99.90;;;;;;5091086;28;20197;-70
2021/12/02 10:41:43;;;;;;;3.47;1.70;;;4.20;99.90;;;;;;5091220;28;20662;-70
2021/12/02 10:44:17;;;;;;;7.37;2.50;;;4.20;99.90;;;;;;5090630;28;20523;-70
2021/12/02 10:47:00;;;;;;;4.67;2.00;;;4.40;99.90;;;;;;5090788;28;20205;-69
2021/12/02 10:49:29;;;;;;;4.47;1.70;;;4.40;99.90;;;;;;5091346;28;20255;-69
2021/12/02 10:51:58;;;;;;;4.10;1.43;;;4.50;99.90;;;;;;5091460;28;20243;-70
2021/12/02 10:54:28;;;;;;;2.53;1.80;;;4.60;99.90;;;;;;5091279;28;20220;-70
2021/12/02 10:56:57;;;;;;;6.43;2.20;;;4.70;99.90;;;;;;5090302;28;20217;-69
2021/12/02 10:59:34;;;;;;;6.37;2.93;;;4.70;99.90;;;;;;5091176;28;20208;-70
2021/12/02 11:02:03;;;;;;;3.40;1.63;;;4.90;99.90;;;;;;5083906;28;20288;-70
2021/12/02 11:04:37;;;;;;;3.70;1.83;;;4.80;99.90;;;;;;5070814;28;20229;-70
2021/12/02 11:07:09;;;;;;;7.13;2.80;;;4.90;99.90;;;;;;5070538;28;20283;-70
2021/12/02 11:09:38;;;;;;;4.23;2.33;;;4.70;99.90;;;;;;5051139;28;20245;-70
2021/12/02 11:12:17;;;;;;;2.67;1.90;;;4.90;99.90;;;;;;5049582;28;20607;-70
2021/12/02 11:15:06;;;;;;;3.90;1.77;;;4.90;99.90;;;;;;5049531;28;20202;-70
2021/12/02 11:17:35;;;;;;;4.73;2.60;;;4.70;99.90;;;;;;5072734;28;20263;-70
2021/12/02 11:20:05;;;;;;;6.33;2.40;;;4.60;99.90;;;;;;5089634;28;20278;-70
2021/12/02 11:22:32;;;;;;;5.43;2.13;;;4.50;99.90;;;;;;5086366;28;20198;-70
2021/12/02 11:25:00;;;;;;;4.07;2.70;;;4.70;99.90;;;;;;5075230;28;20260;-70
2021/12/02 11:27:30;;;;;;;10.23;3.00;;;4.50;99.90;;;;;;5090754;28;20202;-69
2021/12/02 11:30:04;;;;;;;3.83;2.20;;;4.40;99.90;;;;;;5075414;28;20746;-70
2021/12/02 11:32:34;;;;;;;3.57;1.90;;;4.40;99.90;;;;;;5077348;28;20218;-70
2021/12/02 11:35:12;;;;;;;4.20;2.53;;;4.50;99.90;;;;;;5049895;28;20607;-70
2021/12/02 11:37:41;;;;;;;5.23;2.20;;;4.60;99.90;;;;;;5049132;28;20230;-70
2021/12/02 11:40:11;;;;;;;4.53;2.10;;;4.70;99.90;;;;;;5050427;28;20641;-70
2021/12/02 11:42:38;;;;;;;5.83;2.30;;;4.80;99.90;;;;;;5049916;28;20239;-70
2021/12/02 11:45:10;;;;;;;4.93;2.00;;;4.70;99.90;;;;;;5050786;28;20631;-70
2021/12/02 11:47:38;;;;;;;7.63;1.70;;;5.80;99.90;;;;;;5049426;28;20565;-70
2021/12/02 11:50:08;;;;;;;6.20;1.97;;;5.30;99.90;;;;;;5050444;28;20199;-70
2021/12/02 11:52:37;;;;;;;7.77;2.10;;;5.20;99.90;;;;;;5049553;28;20298;-70
2021/12/02 11:55:06;;;;;;;5.40;2.10;;;5.00;99.90;;;;;;5048668;28;20207;-70
2021/12/02 11:57:34;;;;;;;4.47;2.40;;;4.90;99.90;;;;;;5051088;28;20244;-70
2021/12/02 12:00:02;;;;;;;6.20;2.60;;;4.70;99.90;;;;;;5054395;28;20211;-70
2021/12/02 12:02:30;;;;;;;5.80;2.43;;;4.60;99.90;;;;;;5053133;28;20298;-70
2021/12/02 12:05:01;;;;;;;3.77;2.20;;;4.70;99.90;;;;;;5054144;28;20222;-70
2021/12/02 12:07:40;;;;;;;5.83;2.53;;;4.70;99.90;;;;;;5053976;28;20514;-69
2021/12/02 12:10:27;;;;;;;4.77;2.47;;;4.60;99.90;;;;;;5053393;28;20543;-70
2021/12/02 12:13:10;;;;;;;7.63;3.40;;;4.60;99.90;;;;;;5041274;28;20264;-70
2021/12/02 12:15:41;;;;;;;3.77;2.60;;;4.70;99.90;;;;;;5053942;28;20569;-70
2021/12/02 12:18:12;;;;;;;6.43;2.57;;;4.70;99.90;;;;;;5053652;28;20215;-70
2021/12/02 12:21:01;;;;;;;4.97;2.07;;;4.80;99.90;;;;;;5053407;28;20207;-70
2021/12/02 12:23:40;;;;;;;6.90;2.27;;;4.70;99.90;;;;;;5053127;28;20214;-70
2021/12/02 12:26:31;;;;;;;3.70;2.10;;;4.70;99.90;;;;;;5052367;28;20226;-70
2021/12/02 12:29:30;;;;;;;8.53;2.20;;;4.60;99.90;;;;;;5053203;28;20662;-70
2021/12/02 12:32:52;;;;;;;7.60;2.47;;;4.80;99.90;;;;;;5054030;28;20199;-69
2021/12/02 12:35:37;;;;;;;5.20;2.37;;;4.90;99.90;;;;;;5033086;28;20606;-70
2021/12/02 12:38:21;;;;;;;6.50;2.53;;;4.90;99.90;;;;;;5048539;28;20718;-70
2021/12/02 12:40:50;;;;;;;3.23;2.00;;;5.80;99.90;;;;;;5050692;28;20265;-70
2021/12/02 12:43:39;;;;;;;6.53;2.47;;;5.80;99.90;;;;;;5053434;28;20268;-70
2021/12/02 12:46:24;;;;;;;6.03;1.90;;;5.40;99.90;;;;;;5052027;28;20226;-70
2021/12/02 12:48:53;;;;;;;4.93;1.80;;;5.00;99.90;;;;;;5053351;28;20206;-69
2021/12/02 12:51:50;;;;;;;7.07;2.27;;;5.10;99.90;;;;;;5053055;28;20207;-70
2021/12/02 12:54:22;;;;;;;2.70;1.83;;;5.00;99.90;;;;;;5053032;28;20238;-69
2021/12/02 12:57:02;;;;;;;6.53;1.90;;;4.90;99.90;;;;;;5052338;28;20562;-69
2021/12/02 12:59:29;;;;;;;6.63;2.17;;;4.90;99.90;;;;;;5052641;28;20202;-70
2021/12/02 13:01:59;;;;;;;4.40;1.90;;;4.80;99.90;;;;;;5052400;28;20714;-69
2021/12/02 13:04:27;;;;;;;5.23;2.10;;;4.80;99.90;;;;;;5053482;28;20326;-70
2021/12/02 13:07:12;;;;;;;10.07;2.50;;;4.70;99.90;;;;;;5052949;28;20230;-69
2021/12/02 13:09:49;;;;;;;3.67;1.93;;;4.60;99.90;;;;;;5050519;28;20286;-69
2021/12/02 13:12:19;;;;;;;6.03;1.87;;;4.60;99.90;;;;;;5052106;28;20210;-69
2021/12/02 13:14:48;;;;;;;10.20;3.83;;;4.60;99.90;;;;;;5053353;28;20301;-69